sensor_id;sensor_type;location;lat;lon;timestamp;P1;durP1;ratioP1;P2;durP2;ratioP2
38113;SDS011;23926;53.222;6.354;2022-11-20T00:01:46;31.77;;;18.45;;
38113;SDS011;23926;53.222;6.354;2022-11-20T00:04:11;29.88;;;16.50;;
38113;SDS011;23926;53.222;6.354;2022-11-20T00:06:37;23.90;;;13.55;;
38113;SDS011;23926;53.222;6.354;2022-11-20T00:09:02;28.67;;;15.48;;
38113;SDS011;23926;53.222;6.354;2022-11-20T00:11:28;26.67;;;15.18;;
38113;SDS011;23926;53.222;6.354;2022-11-20T00:13:56;23.95;;;14.82;;
38113;SDS011;23926;53.222;6.354;2022-11-20T00:16:24;28.27;;;15.68;;
38113;SDS011;23926;53.222;6.354;2022-11-20T00:18:51;26.83;;;15.93;;
38113;SDS011;23926;53.222;6.354;2022-11-20T00:21:26;32.58;;;19.30;;
38113;SDS011;23926;53.222;6.354;2022-11-20T00:23:54;26.90;;;15.95;;
38113;SDS011;23926;53.222;6.354;2022-11-20T00:26:21;35.97;;;19.15;;
38113;SDS011;23926;53.222;6.354;2022-11-20T00:28:52;30.80;;;16.15;;
38113;SDS011;23926;53.222;6.354;2022-11-20T00:31:18;31.08;;;16.77;;
38113;SDS011;23926;53.222;6.354;2022-11-20T00:33:44;33.05;;;17.25;;
38113;SDS011;23926;53.222;6.354;2022-11-20T00:36:11;33.95;;;18.58;;
38113;SDS011;23926;53.222;6.354;2022-11-20T00:38:41;27.25;;;15.38;;
38113;SDS011;23926;53.222;6.354;2022-11-20T00:41:08;34.00;;;17.65;;
38113;SDS011;23926;53.222;6.354;2022-11-20T00:43:35;25.75;;;16.30;;
38113;SDS011;23926;53.222;6.354;2022-11-20T00:46:05;32.40;;;17.30;;
38113;SDS011;23926;53.222;6.354;2022-11-20T00:51:00;30.88;;;15.00;;
38113;SDS011;23926;53.222;6.354;2022-11-20T00:53:26;25.98;;;14.52;;
38113;SDS011;23926;53.222;6.354;2022-11-20T00:55:55;28.92;;;16.25;;
38113;SDS011;23926;53.222;6.354;2022-11-20T00:58:22;27.55;;;16.25;;
38113;SDS011;23926;53.222;6.354;2022-11-20T01:00:48;29.45;;;15.48;;
38113;SDS011;23926;53.222;6.354;2022-11-20T01:03:17;27.30;;;15.40;;
38113;SDS011;23926;53.222;6.354;2022-11-20T01:05:43;25.23;;;14.98;;
38113;SDS011;23926;53.222;6.354;2022-11-20T01:08:09;21.65;;;12.50;;
38113;SDS011;23926;53.222;6.354;2022-11-20T01:10:34;26.27;;;14.75;;
38113;SDS011;23926;53.222;6.354;2022-11-20T01:12:59;23.70;;;15.27;;
38113;SDS011;23926;53.222;6.354;2022-11-20T01:15:43;28.75;;;16.17;;
38113;SDS011;23926;53.222;6.354;2022-11-20T01:18:09;30.13;;;17.10;;
38113;SDS011;23926;53.222;6.354;2022-11-20T01:20:35;31.10;;;17.27;;
38113;SDS011;23926;53.222;6.354;2022-11-20T01:23:01;28.38;;;15.95;;
38113;SDS011;23926;53.222;6.354;2022-11-20T01:25:27;31.08;;;17.45;;
38113;SDS011;23926;53.222;6.354;2022-11-20T01:27:52;31.65;;;18.15;;
38113;SDS011;23926;53.222;6.354;2022-11-20T01:30:18;19.67;;;12.00;;
38113;SDS011;23926;53.222;6.354;2022-11-20T01:32:43;28.38;;;15.98;;
38113;SDS011;23926;53.222;6.354;2022-11-20T01:35:09;24.65;;;14.10;;
38113;SDS011;23926;53.222;6.354;2022-11-20T01:37:35;22.13;;;13.85;;
38113;SDS011;23926;53.222;6.354;2022-11-20T01:40:00;20.83;;;13.15;;
38113;SDS011;23926;53.222;6.354;2022-11-20T01:42:26;26.95;;;15.57;;
38113;SDS011;23926;53.222;6.354;2022-11-20T01:48:14;24.50;;;13.52;;
38113;SDS011;23926;53.222;6.354;2022-11-20T01:50:39;28.15;;;16.23;;
38113;SDS011;23926;53.222;6.354;2022-11-20T01:53:08;22.58;;;13.80;;
38113;SDS011;23926;53.222;6.354;2022-11-20T01:55:42;18.60;;;11.55;;
38113;SDS011;23926;53.222;6.354;2022-11-20T01:58:14;18.77;;;10.77;;
38113;SDS011;23926;53.222;6.354;2022-11-20T02:00:41;26.42;;;15.25;;
38113;SDS011;23926;53.222;6.354;2022-11-20T02:03:09;28.33;;;15.57;;
38113;SDS011;23926;53.222;6.354;2022-11-20T02:05:40;27.70;;;15.05;;
38113;SDS011;23926;53.222;6.354;2022-11-20T02:08:10;38.22;;;20.10;;
38113;SDS011;23926;53.222;6.354;2022-11-20T02:10:35;33.95;;;19.00;;
38113;SDS011;23926;53.222;6.354;2022-11-20T02:13:01;41.35;;;17.92;;
38113;SDS011;23926;53.222;6.354;2022-11-20T02:15:46;32.75;;;18.00;;
38113;SDS011;23926;53.222;6.354;2022-11-20T02:18:13;33.45;;;18.35;;
38113;SDS011;23926;53.222;6.354;2022-11-20T02:20:44;33.53;;;19.38;;
38113;SDS011;23926;53.222;6.354;2022-11-20T02:25:40;25.27;;;15.38;;
38113;SDS011;23926;53.222;6.354;2022-11-20T02:28:07;26.63;;;15.32;;
38113;SDS011;23926;53.222;6.354;2022-11-20T02:30:33;31.67;;;18.13;;
38113;SDS011;23926;53.222;6.354;2022-11-20T02:32:58;29.63;;;17.27;;
38113;SDS011;23926;53.222;6.354;2022-11-20T02:37:50;28.17;;;16.30;;
38113;SDS011;23926;53.222;6.354;2022-11-20T02:40:20;27.40;;;15.95;;
38113;SDS011;23926;53.222;6.354;2022-11-20T02:42:46;26.92;;;14.88;;
38113;SDS011;23926;53.222;6.354;2022-11-20T02:45:12;30.73;;;16.63;;
38113;SDS011;23926;53.222;6.354;2022-11-20T02:47:37;27.50;;;15.50;;
38113;SDS011;23926;53.222;6.354;2022-11-20T02:50:03;27.35;;;16.02;;
38113;SDS011;23926;53.222;6.354;2022-11-20T02:52:29;28.75;;;16.17;;
38113;SDS011;23926;53.222;6.354;2022-11-20T02:54:55;30.38;;;17.52;;
38113;SDS011;23926;53.222;6.354;2022-11-20T02:57:20;26.88;;;15.60;;
38113;SDS011;23926;53.222;6.354;2022-11-20T02:59:46;31.38;;;17.40;;
38113;SDS011;23926;53.222;6.354;2022-11-20T03:02:11;29.40;;;16.80;;
38113;SDS011;23926;53.222;6.354;2022-11-20T03:04:36;24.38;;;14.50;;
38113;SDS011;23926;53.222;6.354;2022-11-20T03:07:02;24.67;;;14.40;;
38113;SDS011;23926;53.222;6.354;2022-11-20T03:09:28;31.42;;;17.67;;
38113;SDS011;23926;53.222;6.354;2022-11-20T03:11:54;26.15;;;15.65;;
38113;SDS011;23926;53.222;6.354;2022-11-20T03:14:19;27.58;;;15.43;;
38113;SDS011;23926;53.222;6.354;2022-11-20T03:16:44;27.73;;;14.23;;
38113;SDS011;23926;53.222;6.354;2022-11-20T03:19:10;23.95;;;14.23;;
38113;SDS011;23926;53.222;6.354;2022-11-20T03:21:36;26.45;;;14.10;;
38113;SDS011;23926;53.222;6.354;2022-11-20T03:24:02;22.48;;;13.70;;
38113;SDS011;23926;53.222;6.354;2022-11-20T03:26:30;25.33;;;14.60;;
38113;SDS011;23926;53.222;6.354;2022-11-20T03:28:58;25.60;;;14.23;;
38113;SDS011;23926;53.222;6.354;2022-11-20T03:31:26;24.58;;;14.15;;
38113;SDS011;23926;53.222;6.354;2022-11-20T03:34:02;30.75;;;15.68;;
38113;SDS011;23926;53.222;6.354;2022-11-20T03:36:29;25.75;;;14.35;;
38113;SDS011;23926;53.222;6.354;2022-11-20T03:38:55;23.25;;;13.70;;
38113;SDS011;23926;53.222;6.354;2022-11-20T03:41:22;24.00;;;15.05;;
38113;SDS011;23926;53.222;6.354;2022-11-20T03:43:53;24.10;;;15.23;;
38113;SDS011;23926;53.222;6.354;2022-11-20T03:46:28;21.65;;;12.20;;
38113;SDS011;23926;53.222;6.354;2022-11-20T03:48:54;23.33;;;12.93;;
38113;SDS011;23926;53.222;6.354;2022-11-20T03:51:21;23.92;;;13.90;;
38113;SDS011;23926;53.222;6.354;2022-11-20T03:53:54;18.33;;;11.25;;
38113;SDS011;23926;53.222;6.354;2022-11-20T03:56:26;15.75;;;11.13;;
38113;SDS011;23926;53.222;6.354;2022-11-20T03:58:56;19.00;;;11.25;;
38113;SDS011;23926;53.222;6.354;2022-11-20T04:01:23;22.58;;;13.07;;
38113;SDS011;23926;53.222;6.354;2022-11-20T04:03:54;25.00;;;14.15;;
38113;SDS011;23926;53.222;6.354;2022-11-20T04:06:21;26.67;;;14.15;;
38113;SDS011;23926;53.222;6.354;2022-11-20T04:08:49;24.17;;;13.02;;
38113;SDS011;23926;53.222;6.354;2022-11-20T04:11:18;23.58;;;12.30;;
38113;SDS011;23926;53.222;6.354;2022-11-20T04:13:50;19.98;;;11.95;;
38113;SDS011;23926;53.222;6.354;2022-11-20T04:16:17;22.00;;;12.75;;
38113;SDS011;23926;53.222;6.354;2022-11-20T04:18:43;24.38;;;13.90;;
38113;SDS011;23926;53.222;6.354;2022-11-20T04:21:09;22.05;;;13.27;;
38113;SDS011;23926;53.222;6.354;2022-11-20T04:23:35;28.48;;;15.85;;
38113;SDS011;23926;53.222;6.354;2022-11-20T04:26:01;23.48;;;13.95;;
38113;SDS011;23926;53.222;6.354;2022-11-20T04:28:29;23.05;;;14.38;;
38113;SDS011;23926;53.222;6.354;2022-11-20T04:30:54;24.65;;;13.70;;
38113;SDS011;23926;53.222;6.354;2022-11-20T04:33:27;24.30;;;13.70;;
38113;SDS011;23926;53.222;6.354;2022-11-20T04:35:52;19.35;;;12.07;;
38113;SDS011;23926;53.222;6.354;2022-11-20T04:38:18;23.67;;;13.50;;
38113;SDS011;23926;53.222;6.354;2022-11-20T04:40:43;26.05;;;14.73;;
38113;SDS011;23926;53.222;6.354;2022-11-20T04:43:08;23.40;;;14.00;;
38113;SDS011;23926;53.222;6.354;2022-11-20T04:45:34;21.55;;;12.75;;
38113;SDS011;23926;53.222;6.354;2022-11-20T04:47:59;24.45;;;14.32;;
38113;SDS011;23926;53.222;6.354;2022-11-20T04:50:24;25.23;;;13.77;;
38113;SDS011;23926;53.222;6.354;2022-11-20T04:52:50;19.80;;;11.90;;
38113;SDS011;23926;53.222;6.354;2022-11-20T04:55:15;16.10;;;10.13;;
38113;SDS011;23926;53.222;6.354;2022-11-20T04:57:41;22.75;;;13.35;;
38113;SDS011;23926;53.222;6.354;2022-11-20T05:00:06;19.95;;;12.82;;
38113;SDS011;23926;53.222;6.354;2022-11-20T05:02:32;23.83;;;12.38;;
38113;SDS011;23926;53.222;6.354;2022-11-20T05:04:57;20.75;;;12.00;;
38113;SDS011;23926;53.222;6.354;2022-11-20T05:07:23;23.23;;;12.98;;
38113;SDS011;23926;53.222;6.354;2022-11-20T05:09:48;15.15;;;9.43;;
38113;SDS011;23926;53.222;6.354;2022-11-20T05:12:13;17.73;;;9.55;;
38113;SDS011;23926;53.222;6.354;2022-11-20T05:14:39;15.00;;;9.38;;
38113;SDS011;23926;53.222;6.354;2022-11-20T05:17:04;17.00;;;10.13;;
38113;SDS011;23926;53.222;6.354;2022-11-20T05:19:30;21.50;;;12.35;;
38113;SDS011;23926;53.222;6.354;2022-11-20T05:21:55;20.75;;;12.70;;
38113;SDS011;23926;53.222;6.354;2022-11-20T05:24:20;22.08;;;13.30;;
38113;SDS011;23926;53.222;6.354;2022-11-20T05:26:46;25.40;;;14.82;;
38113;SDS011;23926;53.222;6.354;2022-11-20T05:29:11;25.65;;;14.35;;
38113;SDS011;23926;53.222;6.354;2022-11-20T05:31:38;22.20;;;13.73;;
38113;SDS011;23926;53.222;6.354;2022-11-20T05:34:04;21.98;;;12.57;;
38113;SDS011;23926;53.222;6.354;2022-11-20T05:36:29;22.15;;;13.45;;
38113;SDS011;23926;53.222;6.354;2022-11-20T05:38:55;25.27;;;14.55;;
38113;SDS011;23926;53.222;6.354;2022-11-20T05:41:20;21.90;;;11.88;;
38113;SDS011;23926;53.222;6.354;2022-11-20T05:43:46;21.67;;;12.80;;
38113;SDS011;23926;53.222;6.354;2022-11-20T05:46:13;24.38;;;14.57;;
38113;SDS011;23926;53.222;6.354;2022-11-20T05:48:41;22.60;;;13.60;;
38113;SDS011;23926;53.222;6.354;2022-11-20T05:51:08;21.63;;;12.65;;
38113;SDS011;23926;53.222;6.354;2022-11-20T05:53:36;22.42;;;13.98;;
38113;SDS011;23926;53.222;6.354;2022-11-20T05:56:03;22.05;;;13.25;;
38113;SDS011;23926;53.222;6.354;2022-11-20T05:58:30;21.13;;;13.38;;
38113;SDS011;23926;53.222;6.354;2022-11-20T06:01:07;21.20;;;12.57;;
38113;SDS011;23926;53.222;6.354;2022-11-20T06:03:34;20.40;;;12.75;;
38113;SDS011;23926;53.222;6.354;2022-11-20T06:06:01;23.65;;;13.75;;
38113;SDS011;23926;53.222;6.354;2022-11-20T06:08:27;20.27;;;12.63;;
38113;SDS011;23926;53.222;6.354;2022-11-20T06:10:53;22.52;;;12.32;;
38113;SDS011;23926;53.222;6.354;2022-11-20T06:13:18;18.67;;;11.73;;
38113;SDS011;23926;53.222;6.354;2022-11-20T06:15:50;20.10;;;11.88;;
38113;SDS011;23926;53.222;6.354;2022-11-20T06:18:17;17.65;;;10.73;;
38113;SDS011;23926;53.222;6.354;2022-11-20T06:20:43;23.45;;;12.50;;
38113;SDS011;23926;53.222;6.354;2022-11-20T06:23:08;23.23;;;13.57;;
38113;SDS011;23926;53.222;6.354;2022-11-20T06:25:36;19.67;;;11.82;;
38113;SDS011;23926;53.222;6.354;2022-11-20T06:28:06;24.52;;;14.00;;
38113;SDS011;23926;53.222;6.354;2022-11-20T06:30:32;19.77;;;12.48;;
38113;SDS011;23926;53.222;6.354;2022-11-20T06:32:57;22.48;;;12.00;;
38113;SDS011;23926;53.222;6.354;2022-11-20T06:35:22;18.85;;;11.90;;
38113;SDS011;23926;53.222;6.354;2022-11-20T06:37:48;21.85;;;14.25;;
38113;SDS011;23926;53.222;6.354;2022-11-20T06:40:13;23.38;;;12.77;;
38113;SDS011;23926;53.222;6.354;2022-11-20T06:42:38;21.95;;;12.55;;
38113;SDS011;23926;53.222;6.354;2022-11-20T06:45:04;23.15;;;12.90;;
38113;SDS011;23926;53.222;6.354;2022-11-20T06:47:29;20.00;;;10.73;;
38113;SDS011;23926;53.222;6.354;2022-11-20T06:49:55;17.88;;;10.60;;
38113;SDS011;23926;53.222;6.354;2022-11-20T06:52:23;21.80;;;12.27;;
38113;SDS011;23926;53.222;6.354;2022-11-20T06:54:48;18.80;;;11.30;;
38113;SDS011;23926;53.222;6.354;2022-11-20T06:57:13;18.20;;;10.35;;
38113;SDS011;23926;53.222;6.354;2022-11-20T06:59:39;19.77;;;12.40;;
38113;SDS011;23926;53.222;6.354;2022-11-20T07:02:04;20.73;;;13.15;;
38113;SDS011;23926;53.222;6.354;2022-11-20T07:04:29;19.27;;;11.38;;
38113;SDS011;23926;53.222;6.354;2022-11-20T07:06:55;20.48;;;11.57;;
38113;SDS011;23926;53.222;6.354;2022-11-20T07:09:20;20.83;;;13.18;;
38113;SDS011;23926;53.222;6.354;2022-11-20T07:11:46;21.55;;;11.90;;
38113;SDS011;23926;53.222;6.354;2022-11-20T07:14:11;19.05;;;12.32;;
38113;SDS011;23926;53.222;6.354;2022-11-20T07:16:36;17.90;;;10.85;;
38113;SDS011;23926;53.222;6.354;2022-11-20T07:19:02;19.83;;;11.73;;
38113;SDS011;23926;53.222;6.354;2022-11-20T07:21:27;23.60;;;13.45;;
38113;SDS011;23926;53.222;6.354;2022-11-20T07:23:52;22.98;;;13.75;;
38113;SDS011;23926;53.222;6.354;2022-11-20T07:26:18;18.85;;;11.65;;
38113;SDS011;23926;53.222;6.354;2022-11-20T07:28:44;13.82;;;9.45;;
38113;SDS011;23926;53.222;6.354;2022-11-20T07:31:10;17.80;;;10.68;;
38113;SDS011;23926;53.222;6.354;2022-11-20T07:33:37;22.90;;;12.75;;
38113;SDS011;23926;53.222;6.354;2022-11-20T07:36:02;19.98;;;12.40;;
38113;SDS011;23926;53.222;6.354;2022-11-20T07:38:28;20.75;;;12.35;;
38113;SDS011;23926;53.222;6.354;2022-11-20T07:40:54;22.08;;;12.48;;
38113;SDS011;23926;53.222;6.354;2022-11-20T07:43:20;22.45;;;12.50;;
38113;SDS011;23926;53.222;6.354;2022-11-20T07:45:46;22.92;;;13.25;;
38113;SDS011;23926;53.222;6.354;2022-11-20T07:48:11;19.13;;;11.70;;
38113;SDS011;23926;53.222;6.354;2022-11-20T07:50:36;19.83;;;12.38;;
38113;SDS011;23926;53.222;6.354;2022-11-20T07:53:02;20.40;;;12.38;;
38113;SDS011;23926;53.222;6.354;2022-11-20T07:55:31;16.90;;;11.18;;
38113;SDS011;23926;53.222;6.354;2022-11-20T07:57:57;21.48;;;11.52;;
38113;SDS011;23926;53.222;6.354;2022-11-20T08:00:23;16.42;;;9.57;;
38113;SDS011;23926;53.222;6.354;2022-11-20T08:02:49;14.02;;;9.43;;
38113;SDS011;23926;53.222;6.354;2022-11-20T08:05:15;16.00;;;10.45;;
38113;SDS011;23926;53.222;6.354;2022-11-20T08:07:41;26.35;;;14.65;;
38113;SDS011;23926;53.222;6.354;2022-11-20T08:10:08;18.38;;;10.73;;
38113;SDS011;23926;53.222;6.354;2022-11-20T08:12:36;24.20;;;13.77;;
38113;SDS011;23926;53.222;6.354;2022-11-20T08:15:39;21.05;;;12.93;;
38113;SDS011;23926;53.222;6.354;2022-11-20T08:18:09;19.67;;;12.90;;
38113;SDS011;23926;53.222;6.354;2022-11-20T08:20:36;25.60;;;14.48;;
38113;SDS011;23926;53.222;6.354;2022-11-20T08:23:03;18.30;;;11.70;;
38113;SDS011;23926;53.222;6.354;2022-11-20T08:25:34;21.20;;;11.75;;
38113;SDS011;23926;53.222;6.354;2022-11-20T08:28:02;21.80;;;13.07;;
38113;SDS011;23926;53.222;6.354;2022-11-20T08:30:29;20.38;;;12.63;;
38113;SDS011;23926;53.222;6.354;2022-11-20T08:32:59;18.73;;;11.98;;
38113;SDS011;23926;53.222;6.354;2022-11-20T08:35:36;20.42;;;12.10;;
38113;SDS011;23926;53.222;6.354;2022-11-20T08:38:03;16.50;;;10.02;;
38113;SDS011;23926;53.222;6.354;2022-11-20T08:40:29;19.55;;;12.32;;
38113;SDS011;23926;53.222;6.354;2022-11-20T08:42:55;22.67;;;13.02;;
38113;SDS011;23926;53.222;6.354;2022-11-20T08:45:20;22.13;;;12.77;;
38113;SDS011;23926;53.222;6.354;2022-11-20T08:47:46;23.55;;;13.98;;
38113;SDS011;23926;53.222;6.354;2022-11-20T08:50:12;22.55;;;14.00;;
38113;SDS011;23926;53.222;6.354;2022-11-20T08:52:39;22.30;;;13.90;;
38113;SDS011;23926;53.222;6.354;2022-11-20T08:55:05;21.05;;;11.90;;
38113;SDS011;23926;53.222;6.354;2022-11-20T08:57:32;18.90;;;11.32;;
38113;SDS011;23926;53.222;6.354;2022-11-20T08:59:58;20.88;;;12.50;;
38113;SDS011;23926;53.222;6.354;2022-11-20T09:02:24;17.75;;;11.48;;
38113;SDS011;23926;53.222;6.354;2022-11-20T09:04:49;13.50;;;8.88;;
38113;SDS011;23926;53.222;6.354;2022-11-20T09:07:14;12.75;;;8.75;;
38113;SDS011;23926;53.222;6.354;2022-11-20T09:09:40;15.50;;;9.98;;
38113;SDS011;23926;53.222;6.354;2022-11-20T09:12:05;16.80;;;10.77;;
38113;SDS011;23926;53.222;6.354;2022-11-20T09:14:31;17.88;;;11.25;;
38113;SDS011;23926;53.222;6.354;2022-11-20T09:16:56;14.32;;;9.70;;
38113;SDS011;23926;53.222;6.354;2022-11-20T09:19:23;18.50;;;11.75;;
38113;SDS011;23926;53.222;6.354;2022-11-20T09:21:49;16.25;;;9.57;;
38113;SDS011;23926;53.222;6.354;2022-11-20T09:24:14;17.70;;;11.30;;
38113;SDS011;23926;53.222;6.354;2022-11-20T09:26:39;22.73;;;13.80;;
38113;SDS011;23926;53.222;6.354;2022-11-20T09:29:05;16.42;;;11.10;;
38113;SDS011;23926;53.222;6.354;2022-11-20T09:31:30;13.07;;;9.73;;
38113;SDS011;23926;53.222;6.354;2022-11-20T09:33:56;14.05;;;10.18;;
38113;SDS011;23926;53.222;6.354;2022-11-20T09:36:21;12.88;;;8.57;;
38113;SDS011;23926;53.222;6.354;2022-11-20T09:38:47;15.20;;;10.15;;
38113;SDS011;23926;53.222;6.354;2022-11-20T09:41:26;16.10;;;10.23;;
38113;SDS011;23926;53.222;6.354;2022-11-20T09:47:18;19.40;;;12.75;;
38113;SDS011;23926;53.222;6.354;2022-11-20T09:55:25;15.95;;;10.90;;
38113;SDS011;23926;53.222;6.354;2022-11-20T09:57:53;17.90;;;11.55;;
38113;SDS011;23926;53.222;6.354;2022-11-20T10:00:19;17.63;;;10.68;;
38113;SDS011;23926;53.222;6.354;2022-11-20T10:05:37;15.73;;;10.15;;
38113;SDS011;23926;53.222;6.354;2022-11-20T10:10:35;17.92;;;11.90;;
38113;SDS011;23926;53.222;6.354;2022-11-20T10:13:18;18.58;;;10.52;;
38113;SDS011;23926;53.222;6.354;2022-11-20T10:15:56;15.75;;;11.07;;
38113;SDS011;23926;53.222;6.354;2022-11-20T10:24:04;15.13;;;9.80;;
38113;SDS011;23926;53.222;6.354;2022-11-20T10:30:08;17.13;;;11.02;;
38113;SDS011;23926;53.222;6.354;2022-11-20T10:32:36;19.30;;;11.88;;
38113;SDS011;23926;53.222;6.354;2022-11-20T10:35:39;18.85;;;11.55;;
38113;SDS011;23926;53.222;6.354;2022-11-20T10:38:01;18.10;;;11.55;;
38113;SDS011;23926;53.222;6.354;2022-11-20T10:40:43;18.75;;;11.93;;
38113;SDS011;23926;53.222;6.354;2022-11-20T10:43:15;14.68;;;9.98;;
38113;SDS011;23926;53.222;6.354;2022-11-20T10:45:53;15.05;;;10.38;;
38113;SDS011;23926;53.222;6.354;2022-11-20T10:48:27;14.27;;;9.75;;
38113;SDS011;23926;53.222;6.354;2022-11-20T10:51:02;16.17;;;9.88;;
38113;SDS011;23926;53.222;6.354;2022-11-20T10:56:36;21.00;;;12.48;;
38113;SDS011;23926;53.222;6.354;2022-11-20T11:02:14;15.88;;;10.30;;
38113;SDS011;23926;53.222;6.354;2022-11-20T11:04:45;16.80;;;11.32;;
38113;SDS011;23926;53.222;6.354;2022-11-20T11:07:22;15.93;;;9.98;;
38113;SDS011;23926;53.222;6.354;2022-11-20T11:09:54;17.67;;;11.27;;
38113;SDS011;23926;53.222;6.354;2022-11-20T11:12:21;17.92;;;11.32;;
38113;SDS011;23926;53.222;6.354;2022-11-20T11:14:50;16.95;;;10.65;;
38113;SDS011;23926;53.222;6.354;2022-11-20T11:17:35;17.02;;;10.98;;
38113;SDS011;23926;53.222;6.354;2022-11-20T11:22:32;17.77;;;11.48;;
38113;SDS011;23926;53.222;6.354;2022-11-20T11:25:00;16.90;;;10.27;;
38113;SDS011;23926;53.222;6.354;2022-11-20T11:27:25;17.02;;;10.85;;
38113;SDS011;23926;53.222;6.354;2022-11-20T11:30:01;18.58;;;11.52;;
38113;SDS011;23926;53.222;6.354;2022-11-20T11:32:29;16.88;;;11.55;;
38113;SDS011;23926;53.222;6.354;2022-11-20T11:35:02;15.63;;;11.00;;
38113;SDS011;23926;53.222;6.354;2022-11-20T11:37:37;19.25;;;11.68;;
38113;SDS011;23926;53.222;6.354;2022-11-20T11:40:04;17.77;;;11.63;;
38113;SDS011;23926;53.222;6.354;2022-11-20T11:42:31;15.85;;;10.13;;
38113;SDS011;23926;53.222;6.354;2022-11-20T11:44:58;18.48;;;11.90;;
38113;SDS011;23926;53.222;6.354;2022-11-20T11:50:23;18.55;;;11.15;;
38113;SDS011;23926;53.222;6.354;2022-11-20T11:56:24;15.40;;;10.23;;
38113;SDS011;23926;53.222;6.354;2022-11-20T11:58:51;14.95;;;9.68;;
38113;SDS011;23926;53.222;6.354;2022-11-20T12:01:29;15.50;;;9.77;;
38113;SDS011;23926;53.222;6.354;2022-11-20T12:07:29;13.63;;;8.73;;
38113;SDS011;23926;53.222;6.354;2022-11-20T12:10:57;12.13;;;8.25;;
38113;SDS011;23926;53.222;6.354;2022-11-20T12:16:12;11.65;;;7.88;;
38113;SDS011;23926;53.222;6.354;2022-11-20T12:18:40;11.93;;;8.35;;
38113;SDS011;23926;53.222;6.354;2022-11-20T12:26:20;12.50;;;7.90;;
38113;SDS011;23926;53.222;6.354;2022-11-20T12:34:44;10.35;;;7.70;;
38113;SDS011;23926;53.222;6.354;2022-11-20T12:39:49;13.13;;;7.85;;
38113;SDS011;23926;53.222;6.354;2022-11-20T12:42:44;12.35;;;7.50;;
38113;SDS011;23926;53.222;6.354;2022-11-20T12:49:24;10.13;;;7.20;;
38113;SDS011;23926;53.222;6.354;2022-11-20T13:02:34;11.57;;;7.47;;
38113;SDS011;23926;53.222;6.354;2022-11-20T13:08:45;10.50;;;6.95;;
38113;SDS011;23926;53.222;6.354;2022-11-20T13:33:22;9.85;;;6.80;;
38113;SDS011;23926;53.222;6.354;2022-11-20T13:44:43;10.75;;;6.72;;
38113;SDS011;23926;53.222;6.354;2022-11-20T13:51:13;11.23;;;7.05;;
38113;SDS011;23926;53.222;6.354;2022-11-20T13:54:14;9.25;;;6.95;;
38113;SDS011;23926;53.222;6.354;2022-11-20T14:09:10;10.65;;;7.00;;
38113;SDS011;23926;53.222;6.354;2022-11-20T14:12:16;8.80;;;6.30;;
38113;SDS011;23926;53.222;6.354;2022-11-20T14:15:27;9.57;;;6.32;;
38113;SDS011;23926;53.222;6.354;2022-11-20T14:21:54;8.20;;;5.70;;
38113;SDS011;23926;53.222;6.354;2022-11-20T14:27:52;11.88;;;7.35;;
38113;SDS011;23926;53.222;6.354;2022-11-20T14:30:58;12.13;;;7.38;;
38113;SDS011;23926;53.222;6.354;2022-11-20T14:34:22;8.90;;;6.47;;
38113;SDS011;23926;53.222;6.354;2022-11-20T14:44:20;11.75;;;7.18;;
38113;SDS011;23926;53.222;6.354;2022-11-20T14:57:04;11.20;;;6.90;;
38113;SDS011;23926;53.222;6.354;2022-11-20T15:06:58;12.40;;;8.35;;
38113;SDS011;23926;53.222;6.354;2022-11-20T15:10:05;13.60;;;8.00;;
38113;SDS011;23926;53.222;6.354;2022-11-20T15:12:35;11.75;;;7.45;;
38113;SDS011;23926;53.222;6.354;2022-11-20T15:15:08;10.95;;;7.43;;
38113;SDS011;23926;53.222;6.354;2022-11-20T15:24:59;13.80;;;8.73;;
38113;SDS011;23926;53.222;6.354;2022-11-20T15:34:26;13.27;;;8.32;;
38113;SDS011;23926;53.222;6.354;2022-11-20T15:37:31;12.07;;;7.10;;
38113;SDS011;23926;53.222;6.354;2022-11-20T15:53:32;13.18;;;8.63;;
38113;SDS011;23926;53.222;6.354;2022-11-20T15:56:47;15.50;;;9.45;;
38113;SDS011;23926;53.222;6.354;2022-11-20T16:16:36;19.60;;;12.18;;
38113;SDS011;23926;53.222;6.354;2022-11-20T16:25:58;15.07;;;9.93;;
38113;SDS011;23926;53.222;6.354;2022-11-20T16:29:11;14.57;;;9.85;;
38113;SDS011;23926;53.222;6.354;2022-11-20T16:50:52;16.73;;;10.38;;
38113;SDS011;23926;53.222;6.354;2022-11-20T16:54:00;16.63;;;10.65;;
38113;SDS011;23926;53.222;6.354;2022-11-20T16:56:51;21.00;;;10.85;;
38113;SDS011;23926;53.222;6.354;2022-11-20T17:13:25;17.30;;;10.38;;
38113;SDS011;23926;53.222;6.354;2022-11-20T17:16:38;19.85;;;12.02;;
38113;SDS011;23926;53.222;6.354;2022-11-20T17:26:00;18.92;;;11.80;;
38113;SDS011;23926;53.222;6.354;2022-11-20T17:28:51;19.00;;;11.90;;
38113;SDS011;23926;53.222;6.354;2022-11-20T17:31:21;19.10;;;12.37;;
38113;SDS011;23926;53.222;6.354;2022-11-20T17:50:45;17.08;;;11.07;;
38113;SDS011;23926;53.222;6.354;2022-11-20T17:57:16;17.45;;;11.38;;
38113;SDS011;23926;53.222;6.354;2022-11-20T18:00:33;20.73;;;11.88;;
38113;SDS011;23926;53.222;6.354;2022-11-20T18:07:05;19.38;;;12.27;;
38113;SDS011;23926;53.222;6.354;2022-11-20T18:13:19;18.25;;;12.02;;
38113;SDS011;23926;53.222;6.354;2022-11-20T18:15:57;18.10;;;11.55;;
38113;SDS011;23926;53.222;6.354;2022-11-20T18:22:36;20.30;;;11.60;;
38113;SDS011;23926;53.222;6.354;2022-11-20T18:39:30;20.10;;;12.95;;
38113;SDS011;23926;53.222;6.354;2022-11-20T18:46:03;20.97;;;13.27;;
38113;SDS011;23926;53.222;6.354;2022-11-20T18:48:50;23.42;;;13.27;;
38113;SDS011;23926;53.222;6.354;2022-11-20T18:51:33;21.63;;;13.65;;
38113;SDS011;23926;53.222;6.354;2022-11-20T18:54:12;19.13;;;12.23;;
38113;SDS011;23926;53.222;6.354;2022-11-20T18:56:58;20.80;;;12.88;;
38113;SDS011;23926;53.222;6.354;2022-11-20T18:59:23;22.92;;;13.20;;
38113;SDS011;23926;53.222;6.354;2022-11-20T19:01:51;20.55;;;13.13;;
38113;SDS011;23926;53.222;6.354;2022-11-20T19:04:19;19.52;;;12.60;;
38113;SDS011;23926;53.222;6.354;2022-11-20T19:07:24;22.50;;;13.52;;
38113;SDS011;23926;53.222;6.354;2022-11-20T19:13:39;21.90;;;13.75;;
38113;SDS011;23926;53.222;6.354;2022-11-20T19:16:47;21.05;;;13.05;;
38113;SDS011;23926;53.222;6.354;2022-11-20T19:26:06;20.20;;;13.30;;
38113;SDS011;23926;53.222;6.354;2022-11-20T19:28:55;22.48;;;13.23;;
38113;SDS011;23926;53.222;6.354;2022-11-20T19:41:02;20.90;;;12.50;;
38113;SDS011;23926;53.222;6.354;2022-11-20T19:43:38;25.00;;;14.57;;
38113;SDS011;23926;53.222;6.354;2022-11-20T19:46:18;21.27;;;12.80;;
38113;SDS011;23926;53.222;6.354;2022-11-20T19:48:57;21.23;;;12.55;;
38113;SDS011;23926;53.222;6.354;2022-11-20T19:51:24;22.38;;;13.40;;
38113;SDS011;23926;53.222;6.354;2022-11-20T19:53:51;22.98;;;13.63;;
38113;SDS011;23926;53.222;6.354;2022-11-20T19:56:20;25.38;;;15.70;;
38113;SDS011;23926;53.222;6.354;2022-11-20T19:58:45;24.52;;;14.15;;
38113;SDS011;23926;53.222;6.354;2022-11-20T20:01:15;20.52;;;13.73;;
38113;SDS011;23926;53.222;6.354;2022-11-20T20:03:41;21.70;;;13.23;;
38113;SDS011;23926;53.222;6.354;2022-11-20T20:06:12;20.05;;;13.35;;
38113;SDS011;23926;53.222;6.354;2022-11-20T20:08:39;24.30;;;13.95;;
38113;SDS011;23926;53.222;6.354;2022-11-20T20:11:12;25.58;;;14.93;;
38113;SDS011;23926;53.222;6.354;2022-11-20T20:13:39;27.10;;;15.80;;